»·PEaware :: WAT446 KSMF-KLAS

WAT446 :: KSMF-KLAS

FLIGHT INFORMATION

Flight Status: Arrived
Operator:
Walker Air Transport
More flights by this operator :: More flights under this callsign
Pilot: Robert C. (30425)
Aircraft: BOEING 767-300
(B763)
More flights by this aircraft type
Origin: KSMF Sacramento Intl
United States
Destination: KLAS McCarran Intl
United States
More flights between these airports :: More routes between these airports
Route: SCTWN3 SCTWN DOSCO OAL BASIC COKTL1
File this flight plan on PilotEdge
Remarks: RMK / SIMBRIEF
Altitude:
(Current/Filed)
35,000ft
Speed:
(Current/Filed)
478kts
Departed: 07-Apr-21 07:53 PM
Arrived: 07-Apr-21 08:54 PM
Distance/Time
Traveled:
345nm/1:01
Distance/Time
To Go:
Arrived

Flight Plot

Page will automatically refresh every two minutes.

Flight plan parsing failed; only flown route is shown


Map Options




Map Legend


Flown Route
Filed Route
Departure Airport
Arrival Airport
Navaid (VOR, NDB)
Fix

Horizontal Profiles

Position Reports

Time Latitude Longitude Heading Altitude Ground
Speed
07-Apr-21 19:07 38.696355 -121.595184 153 35ft 0kts
07-Apr-21 19:08 38.696355 -121.595184 153 35ft 0kts
07-Apr-21 19:09 38.696355 -121.595184 153 35ft 0kts
07-Apr-21 19:10 38.696355 -121.595184 153 35ft 0kts
07-Apr-21 19:11 38.696355 -121.595184 153 35ft 0kts
07-Apr-21 19:12 38.696355 -121.595184 153 35ft 0kts
07-Apr-21 19:13 38.696355 -121.595184 153 35ft 0kts
07-Apr-21 19:14 38.696355 -121.595184 153 35ft 0kts
07-Apr-21 19:15 38.696355 -121.595184 153 35ft 0kts
07-Apr-21 19:16 38.696355 -121.595184 153 35ft 0kts
07-Apr-21 19:17 38.696355 -121.595184 153 35ft 0kts
07-Apr-21 19:18 38.696355 -121.595184 153 35ft 0kts
07-Apr-21 19:19 38.696355 -121.595184 153 35ft 0kts
07-Apr-21 19:20 38.696355 -121.595184 153 35ft 0kts
07-Apr-21 19:21 38.696355 -121.595184 153 35ft 0kts
07-Apr-21 19:22 38.696355 -121.595184 153 35ft 0kts
07-Apr-21 19:23 38.696355 -121.595184 153 35ft 0kts
07-Apr-21 19:24 38.696355 -121.595184 153 35ft 0kts
07-Apr-21 19:25 38.696355 -121.595184 153 35ft 0kts
07-Apr-21 19:26 38.696355 -121.595184 153 35ft 0kts
07-Apr-21 19:27 38.696355 -121.595184 153 35ft 0kts
07-Apr-21 19:28 38.696355 -121.595184 153 35ft 0kts
07-Apr-21 19:29 38.696355 -121.595184 153 35ft 0kts
07-Apr-21 19:30 38.696355 -121.595184 153 35ft 0kts
07-Apr-21 19:31 38.696355 -121.595184 153 35ft 0kts
07-Apr-21 19:32 38.696355 -121.595184 153 35ft 0kts
07-Apr-21 19:33 38.696355 -121.595184 153 35ft 0kts
07-Apr-21 19:34 38.696355 -121.595184 153 35ft 0kts
07-Apr-21 19:35 38.696355 -121.595184 153 35ft 0kts
07-Apr-21 19:36 38.696355 -121.595184 153 35ft 0kts
07-Apr-21 19:37 38.696553 -121.595253 183 35ft 2kts
07-Apr-21 19:38 38.696982 -121.594789 261 35ft 2kts
07-Apr-21 19:39 38.696986 -121.594630 274 36ft 0kts
07-Apr-21 19:40 38.696986 -121.594630 274 36ft 0kts
07-Apr-21 19:41 38.696986 -121.594630 274 36ft 0kts
07-Apr-21 19:42 38.696986 -121.594630 274 36ft 0kts
07-Apr-21 19:43 38.696986 -121.594632 275 36ft 0kts
07-Apr-21 19:44 38.696986 -121.594632 275 36ft 0kts
07-Apr-21 19:45 38.696994 -121.594763 273 35ft 5kts
07-Apr-21 19:46 38.698689 -121.598599 0 34ft 15kts
07-Apr-21 19:47 38.700926 -121.598545 2 34ft 0kts
07-Apr-21 19:48 38.706866 -121.598536 337 34ft 21kts
07-Apr-21 19:49 38.707168 -121.599316 276 34ft 0kts
07-Apr-21 19:50 38.707168 -121.599316 276 34ft 0kts
07-Apr-21 19:51 38.707178 -121.599440 275 34ft 5kts
07-Apr-21 19:52 38.705674 -121.601106 180 34ft 45kts
07-Apr-21 19:53 38.662299 -121.602824 181 954ft 220kts
07-Apr-21 19:54 38.627546 -121.548294 94 2950ft 230kts
07-Apr-21 19:55 38.630215 -121.464618 89 5159ft 243kts
07-Apr-21 19:56 38.618599 -121.371234 103 7324ft 279kts
07-Apr-21 19:57 38.603442 -121.271640 103 9909ft 295kts
07-Apr-21 19:58 38.587224 -121.165741 102 12631ft 314kts
07-Apr-21 19:59 38.569916 -121.053461 104 15275ft 332kts
07-Apr-21 20:00 38.552715 -120.942704 106 17739ft 345kts
07-Apr-21 20:01 38.531923 -120.810124 106 19574ft 385kts
07-Apr-21 20:02 38.510529 -120.674126 106 22088ft 398kts
07-Apr-21 20:03 38.488515 -120.535507 106 24579ft 400kts
07-Apr-21 20:04 38.466438 -120.397624 107 27062ft 390kts
07-Apr-21 20:05 38.445304 -120.266660 108 29324ft 365kts
07-Apr-21 20:06 38.425141 -120.143876 109 30649ft 353kts
07-Apr-21 20:07 38.403887 -120.017100 108 30888ft 379kts
07-Apr-21 20:08 38.380795 -119.879983 107 31161ft 410kts
07-Apr-21 20:09 38.355695 -119.732177 107 31448ft 446kts
07-Apr-21 20:10 38.328401 -119.572691 106 32112ft 473kts
07-Apr-21 20:11 38.299617 -119.406009 106 33076ft 492kts
07-Apr-21 20:12 38.269522 -119.233375 107 34019ft 506kts
07-Apr-21 20:13 38.238985 -119.059686 106 34981ft 502kts
07-Apr-21 20:14 38.208238 -118.886674 105 35062ft 505kts
07-Apr-21 20:15 38.176492 -118.709550 105 35080ft 525kts
07-Apr-21 20:16 38.143269 -118.525787 105 35043ft 541kts
07-Apr-21 20:17 38.109450 -118.340659 106 35043ft 538kts
07-Apr-21 20:18 38.039281 -118.180364 142 35020ft 515kts
07-Apr-21 20:19 37.935813 -118.057213 135 34995ft 523kts
07-Apr-21 20:20 37.846396 -117.912797 133 34994ft 523kts
07-Apr-21 20:21 37.757889 -117.767343 133 35010ft 523kts
07-Apr-21 20:22 37.669080 -117.621916 133 35047ft 523kts
07-Apr-21 20:23 37.580401 -117.477330 133 35061ft 523kts
07-Apr-21 20:24 37.491409 -117.332815 134 35049ft 519kts
07-Apr-21 20:25 37.402892 -117.189787 133 35049ft 523kts
07-Apr-21 20:26 37.307348 -117.056409 150 35059ft 506kts
07-Apr-21 20:27 37.193331 -116.955381 153 35047ft 494kts
07-Apr-21 20:28 37.079255 -116.856878 154 33204ft 497kts
07-Apr-21 20:29 36.969028 -116.761992 154 30633ft 457kts
07-Apr-21 20:30 36.868173 -116.675732 154 27642ft 428kts
07-Apr-21 20:31 36.772568 -116.594128 153 24683ft 409kts
07-Apr-21 20:32 36.680700 -116.515915 152 21734ft 389kts
07-Apr-21 20:33 36.604218 -116.424437 136 21005ft 395kts
07-Apr-21 20:34 36.533489 -116.324649 137 20988ft 381kts
07-Apr-21 20:35 36.463719 -116.226365 137 20988ft 380kts
07-Apr-21 20:36 36.393844 -116.128209 137 20989ft 380kts
07-Apr-21 20:37 36.323407 -116.029558 136 19643ft 381kts
07-Apr-21 20:38 36.254871 -115.933829 136 18993ft 366kts
07-Apr-21 20:39 36.191889 -115.834746 132 17748ft 361kts
07-Apr-21 20:41 36.134078 -115.734626 114 15892ft 368kts
07-Apr-21 20:42 36.099097 -115.621605 112 13225ft 349kts
07-Apr-21 20:43 36.066526 -115.516105 112 12037ft 321kts
07-Apr-21 20:44 36.034590 -115.413039 112 11763ft 325kts
07-Apr-21 20:45 36.014071 -115.310788 95 10648ft 301kts
07-Apr-21 20:46 36.008515 -115.215671 95 9580ft 265kts
07-Apr-21 20:47 36.003361 -115.125881 96 8885ft 267kts
07-Apr-21 20:48 35.999332 -115.037681 92 7446ft 247kts
07-Apr-21 20:49 36.002969 -114.953587 68 5933ft 249kts
07-Apr-21 20:50 36.058030 -114.933085 319 4347ft 221kts
07-Apr-21 20:51 36.075560 -114.994982 260 3800ft 206kts
07-Apr-21 20:52 36.073707 -115.057116 267 3167ft 162kts
07-Apr-21 20:53 36.073673 -115.106526 267 2372ft 128kts
07-Apr-21 20:54 36.073772 -115.143620 297 2099ft 26kts
07-Apr-21 20:55 36.075001 -115.146337 327 2107ft 16kts
07-Apr-21 20:56 36.077344 -115.146602 342 2106ft 0kts
07-Apr-21 20:57 36.077460 -115.146670 332 2106ft 5kts
07-Apr-21 20:58 36.079419 -115.146766 25 2101ft 6kts
07-Apr-21 20:59 36.079502 -115.146713 27 2100ft 0kts
07-Apr-21 21:00 36.079502 -115.146713 27 2100ft 0kts
07-Apr-21 21:01 36.079502 -115.146713 27 2100ft 0kts
07-Apr-21 21:01 36.079502 -115.146713 27 2100ft 0kts
07-Apr-21 21:03 36.079502 -115.146713 27 2100ft 0kts
07-Apr-21 21:04 36.079502 -115.146713 27 2100ft 0kts
07-Apr-21 21:05 36.079502 -115.146713 27 2100ft 0kts
07-Apr-21 21:06 36.079502 -115.146713 27 2100ft 0kts

Navigation Log

Ident Type
Flight plan parsing failed, navigation log unavailable